createdAt,value
2017-05-26T00:00:54.777Z,13.55
2017-05-26T00:02:04.732Z,13.5
2017-05-26T00:03:17.067Z,13.57
2017-05-26T00:04:27.020Z,13.61
2017-05-26T00:05:37.285Z,13.58
2017-05-26T00:06:47.237Z,13.55
2017-05-26T00:07:57.503Z,13.57
2017-05-26T00:09:08.014Z,13.54
2017-05-26T00:10:17.974Z,13.58
2017-05-26T00:11:28.239Z,13.49
2017-05-26T00:12:37.877Z,13.49
2017-05-26T00:13:47.831Z,13.42
2017-05-26T00:14:58.350Z,13.46
2017-05-26T00:16:08.622Z,13.39
2017-05-26T00:17:18.573Z,13.37
2017-05-26T00:18:28.530Z,13.37
2017-05-26T00:19:38.484Z,13.42
2017-05-26T00:20:48.948Z,13.33
2017-05-26T00:21:59.213Z,13.4
2017-05-26T00:23:09.164Z,13.49
2017-05-26T00:24:19.434Z,13.4
2017-05-26T00:25:29.702Z,13.43
2017-05-26T00:26:39.902Z,13.4
2017-05-26T00:27:49.856Z,13.45
2017-05-26T00:28:59.809Z,13.54
2017-05-26T00:30:10.078Z,13.58
2017-05-26T00:31:20.341Z,13.5
2017-05-26T00:32:30.592Z,13.52
2017-05-26T00:33:40.227Z,13.54
2017-05-26T00:34:50.558Z,13.55
2017-05-26T00:36:00.208Z,13.57
2017-05-26T00:37:09.526Z,13.52
2017-05-26T00:38:19.684Z,13.52
2017-05-26T00:39:29.948Z,13.47
2017-05-26T00:40:39.905Z,13.57
2017-05-26T00:41:50.231Z,13.54
2017-05-26T00:43:00.507Z,13.52
2017-05-26T00:44:11.130Z,13.49
2017-05-26T00:45:21.079Z,13.5
2017-05-26T00:46:31.057Z,13.5
2017-05-26T00:47:41.010Z,13.57
2017-05-26T00:48:50.968Z,13.52
2017-05-26T00:50:03.483Z,13.46
2017-05-26T00:51:13.435Z,13.47
2017-05-26T00:52:23.700Z,13.47
2017-05-26T00:53:33.967Z,13.33
2017-05-26T00:54:44.239Z,13.28
2017-05-26T00:55:54.708Z,13.28
2017-05-26T00:57:04.337Z,13.27
2017-05-26T00:58:14.597Z,13.24
2017-05-26T00:59:24.866Z,13.17
2017-05-26T01:00:34.820Z,13.09
2017-05-26T01:01:45.393Z,13.12
2017-05-26T01:02:55.346Z,13.02
2017-05-26T01:04:05.614Z,12.98
2017-05-26T01:05:15.250Z,12.93
2017-05-26T01:06:24.886Z,12.95
2017-05-26T01:07:35.401Z,12.95
2017-05-26T01:08:45.669Z,12.98
2017-05-26T01:09:55.936Z,12.93
2017-05-26T01:11:06.201Z,12.88
2017-05-26T01:12:16.167Z,12.88
2017-05-26T01:13:26.733Z,12.84
2017-05-26T01:14:36.683Z,12.87
2017-05-26T01:15:46.950Z,12.88
2017-05-26T01:16:57.214Z,12.91
2017-05-26T01:18:07.489Z,12.86
2017-05-26T01:19:18.056Z,12.9
2017-05-26T01:20:28.323Z,12.84
2017-05-26T01:21:38.586Z,12.78
2017-05-26T01:22:48.221Z,12.81
2017-05-26T01:23:58.201Z,12.83
2017-05-26T01:25:08.718Z,12.84
2017-05-26T01:26:18.665Z,12.83
2017-05-26T01:27:28.298Z,12.69
2017-05-26T01:28:38.562Z,12.75
2017-05-26T01:29:48.521Z,12.8
2017-05-26T01:31:01.032Z,12.81
2017-05-26T01:32:10.979Z,12.81
2017-05-26T01:33:21.239Z,12.81
2017-05-26T01:34:31.508Z,12.8
2017-05-26T01:35:41.461Z,12.76
2017-05-26T01:36:51.667Z,12.93
2017-05-26T01:38:01.930Z,12.88
2017-05-26T01:39:11.886Z,12.9
2017-05-26T01:40:21.838Z,12.87
2017-05-26T01:41:31.787Z,12.87
2017-05-26T01:42:43.946Z,12.84
2017-05-26T01:43:54.207Z,12.91
2017-05-26T01:45:04.482Z,12.88
2017-05-26T01:46:14.742Z,13.01
2017-05-26T01:47:24.701Z,12.98
2017-05-26T01:48:34.948Z,12.98
2017-05-26T01:49:45.224Z,12.94
2017-05-26T01:50:55.498Z,13.01
2017-05-26T01:52:05.449Z,12.94
2017-05-26T01:53:15.715Z,12.88
2017-05-26T01:54:26.232Z,13.01
2017-05-26T01:55:36.497Z,12.94
2017-05-26T01:56:46.449Z,12.88
2017-05-26T01:57:56.088Z,13.01
2017-05-26T01:59:06.350Z,12.91
2017-05-26T02:00:16.713Z,12.94
2017-05-26T02:01:26.659Z,13.01
2017-05-26T02:02:36.931Z,12.93
2017-05-26T02:03:46.889Z,12.95
2017-05-26T02:04:56.529Z,12.87
2017-05-26T02:06:06.990Z,12.98
2017-05-26T02:07:17.255Z,12.87
2017-05-26T02:08:27.208Z,12.94
2017-05-26T02:09:37.482Z,12.93
2017-05-26T02:10:47.749Z,12.94
2017-05-26T02:11:58.220Z,12.94
2017-05-26T02:13:08.165Z,13.01
2017-05-26T02:14:18.115Z,13.01
2017-05-26T02:15:27.749Z,13.05
2017-05-26T02:16:38.014Z,13.08
2017-05-26T02:17:48.584Z,13.06
2017-05-26T02:18:58.850Z,13.12
2017-05-26T02:20:08.806Z,13.08
2017-05-26T02:21:19.069Z,13.09
2017-05-26T02:22:29.019Z,13.13
2017-05-26T02:23:39.578Z,13.19
2017-05-26T02:24:49.842Z,13.11
2017-05-26T02:25:59.798Z,13.13
2017-05-26T02:27:09.743Z,13.19
2017-05-26T02:28:19.447Z,13.23
2017-05-26T02:29:29.917Z,13.21
2017-05-26T02:30:39.873Z,13.12
2017-05-26T02:31:50.143Z,13.12
2017-05-26T02:33:00.405Z,13.16
2017-05-26T02:34:10.673Z,13.12
2017-05-26T02:35:21.138Z,13.13
2017-05-26T02:36:31.405Z,13.19
2017-05-26T02:37:41.356Z,13.09
2017-05-26T02:38:51.316Z,13.09
2017-05-26T02:40:01.584Z,13.12
2017-05-26T02:41:11.888Z,13.13
2017-05-26T02:42:21.844Z,13.13
2017-05-26T02:43:31.802Z,13.16
2017-05-26T02:44:42.074Z,13.17
2017-05-26T02:45:52.341Z,13.09
2017-05-26T02:47:02.592Z,13.16
2017-05-26T02:48:12.545Z,13.16
2017-05-26T02:49:22.182Z,13.19
2017-05-26T02:50:31.821Z,13.16
2017-05-26T02:51:41.453Z,13.08
2017-05-26T02:52:51.605Z,13.19
2017-05-26T02:54:01.870Z,13.13
2017-05-26T02:55:11.506Z,13.13
2017-05-26T02:56:21.778Z,13.16
2017-05-26T02:57:31.729Z,13.12
2017-05-26T02:58:42.292Z,13.13
2017-05-26T02:59:52.560Z,13.11
2017-05-26T03:01:02.826Z,13.09
2017-05-26T03:02:12.775Z,13.16
2017-05-26T03:03:22.734Z,13.11
2017-05-26T03:04:33.200Z,13.12
2017-05-26T03:05:43.468Z,13.12
2017-05-26T03:06:53.414Z,13.12
2017-05-26T03:08:03.371Z,13.12
2017-05-26T03:09:13.003Z,13.13
2017-05-26T03:10:23.160Z,13.16
2017-05-26T03:11:33.420Z,13.17
2017-05-26T03:12:43.372Z,13.13
2017-05-26T03:13:53.322Z,13.13
2017-05-26T03:15:03.592Z,13.16
2017-05-26T03:16:15.481Z,13.13
2017-05-26T03:17:25.748Z,13.17
2017-05-26T03:18:36.009Z,13.13
2017-05-26T03:19:46.271Z,13.19
2017-05-26T03:20:56.223Z,13.12
2017-05-26T03:22:06.421Z,13.19
2017-05-26T03:23:16.057Z,13.23
2017-05-26T03:24:26.010Z,13.17
2017-05-26T03:25:35.959Z,13.19
2017-05-26T03:26:46.226Z,13.17
2017-05-26T03:27:56.844Z,13.24
2017-05-26T03:29:06.802Z,13.27
2017-05-26T03:30:16.443Z,13.28
2017-05-26T03:31:26.074Z,13.24
2017-05-26T03:32:36.065Z,13.28
2017-05-26T03:33:46.640Z,13.28
2017-05-26T03:34:56.908Z,13.16
2017-05-26T03:36:07.175Z,13.27
2017-05-26T03:37:17.443Z,13.26
2017-05-26T03:38:27.390Z,13.24
2017-05-26T03:39:37.594Z,13.27
2017-05-26T03:40:47.864Z,13.27
2017-05-26T03:41:58.126Z,13.31
2017-05-26T03:43:08.079Z,13.26
2017-05-26T03:44:17.403Z,13.36
2017-05-26T03:45:26.719Z,13.27
2017-05-26T03:46:36.671Z,13.39
2017-05-26T03:47:46.637Z,13.27
2017-05-26T03:48:56.903Z,13.26
2017-05-26T03:50:06.857Z,13.31
2017-05-26T03:51:17.053Z,13.21
2017-05-26T03:52:27.319Z,13.3
2017-05-26T03:53:37.583Z,13.27
2017-05-26T03:54:47.855Z,13.24
2017-05-26T03:55:58.127Z,13.27
2017-05-26T03:57:08.755Z,13.31
2017-05-26T03:58:19.049Z,13.39
2017-05-26T03:59:29.017Z,13.36
2017-05-26T04:00:38.970Z,13.26
2017-05-26T04:01:49.231Z,13.31
2017-05-26T04:02:59.704Z,13.36
2017-05-26T04:04:09.972Z,13.33
2017-05-26T04:05:20.242Z,13.36
2017-05-26T04:06:30.566Z,13.36
2017-05-26T04:07:40.833Z,13.43
2017-05-26T04:08:51.138Z,13.36
2017-05-26T04:10:01.412Z,13.42
2017-05-26T04:11:11.363Z,13.52
2017-05-26T04:12:21.319Z,13.47
2017-05-26T04:13:31.591Z,13.43
2017-05-26T04:14:41.529Z,13.49
2017-05-26T04:15:51.800Z,13.49
2017-05-26T04:17:01.751Z,13.52
2017-05-26T04:18:11.703Z,13.55
2017-05-26T04:19:21.666Z,13.62
2017-05-26T04:20:31.875Z,13.62
2017-05-26T04:21:42.141Z,13.6
2017-05-26T04:22:52.097Z,13.65
2017-05-26T04:24:02.050Z,13.67
2017-05-26T04:25:12.307Z,13.61
2017-05-26T04:26:24.775Z,13.64
2017-05-26T04:27:35.044Z,13.64
2017-05-26T04:28:44.996Z,13.67
2017-05-26T04:29:55.269Z,13.64
2017-05-26T04:31:05.536Z,13.71
2017-05-26T04:32:15.797Z,13.7
2017-05-26T04:33:26.073Z,13.73
2017-05-26T04:34:36.041Z,13.76
2017-05-26T04:35:46.308Z,13.79
2017-05-26T04:36:56.584Z,13.85
2017-05-26T04:38:09.051Z,13.85
2017-05-26T04:39:19.382Z,13.82
2017-05-26T04:40:29.021Z,13.8
2017-05-26T04:41:38.657Z,13.82
2017-05-26T04:42:48.925Z,13.86
2017-05-26T04:43:59.183Z,13.91
2017-05-26T04:45:09.450Z,13.93
2017-05-26T04:46:19.405Z,13.94
2017-05-26T04:47:29.664Z,13.98
2017-05-26T04:48:39.303Z,14.05
2017-05-26T04:49:49.816Z,14.07
2017-05-26T04:51:00.082Z,14.13
2017-05-26T04:52:10.034Z,14.13
2017-05-26T04:53:19.984Z,14.12
2017-05-26T04:54:30.298Z,14.33
2017-05-26T04:55:40.561Z,14.23
2017-05-26T04:56:50.831Z,14.28
2017-05-26T04:58:01.103Z,14.25
2017-05-26T04:59:11.367Z,14.37
2017-05-26T05:00:21.642Z,14.43
2017-05-26T05:01:31.595Z,14.36
2017-05-26T05:02:41.862Z,14.44
2017-05-26T05:03:52.134Z,14.38
2017-05-26T05:05:02.405Z,14.48
2017-05-26T05:06:12.355Z,14.38
2017-05-26T05:07:22.621Z,14.48
2017-05-26T05:08:32.259Z,14.51
2017-05-26T05:09:41.587Z,14.58
2017-05-26T05:10:51.854Z,14.52
2017-05-26T05:12:01.498Z,14.66
2017-05-26T05:13:11.766Z,14.81
2017-05-26T05:14:21.723Z,14.78
2017-05-26T05:15:31.994Z,14.87
2017-05-26T05:16:41.940Z,14.89
2017-05-26T05:17:52.216Z,14.97
2017-05-26T05:19:02.170Z,15.08
2017-05-26T05:20:12.435Z,15.17
2017-05-26T05:21:22.071Z,15.27
2017-05-26T05:22:32.338Z,15.32
2017-05-26T05:23:42.616Z,15.32
2017-05-26T05:24:52.584Z,15.39
2017-05-26T05:26:02.855Z,15.32
2017-05-26T05:27:12.494Z,15.45
2017-05-26T05:28:22.474Z,15.57
2017-05-26T05:29:32.434Z,15.66
2017-05-26T05:30:42.703Z,15.78
2017-05-26T05:31:52.662Z,15.84
2017-05-26T05:33:02.619Z,15.87
2017-05-26T05:34:12.567Z,15.94
2017-05-26T05:35:22.520Z,15.94
2017-05-26T05:36:32.785Z,15.94
2017-05-26T05:37:43.061Z,16.06
2017-05-26T05:38:53.345Z,16.05
2017-05-26T05:40:03.615Z,16.18
2017-05-26T05:41:13.253Z,16.26
2017-05-26T05:42:23.207Z,16.25
2017-05-26T05:43:33.474Z,16.22
2017-05-26T05:44:43.745Z,16.31
2017-05-26T05:45:54.012Z,16.36
2017-05-26T05:47:03.961Z,16.46
2017-05-26T05:48:13.915Z,16.46
2017-05-26T05:49:24.179Z,16.4
2017-05-26T05:50:33.823Z,16.51
2017-05-26T05:51:43.780Z,16.4
2017-05-26T05:52:54.051Z,16.57
2017-05-26T05:54:04.008Z,16.44
2017-05-26T05:55:13.967Z,16.51
2017-05-26T05:56:23.609Z,16.49
2017-05-26T05:57:33.881Z,16.51
2017-05-26T05:58:44.158Z,16.55
2017-05-26T05:59:54.429Z,16.59
2017-05-26T06:01:04.699Z,16.57
2017-05-26T06:02:14.647Z,16.55
2017-05-26T06:03:24.913Z,16.55
2017-05-26T06:04:35.177Z,16.64
2017-05-26T06:05:45.447Z,16.66
2017-05-26T06:06:55.396Z,16.65
2017-05-26T06:08:05.660Z,16.58
2017-05-26T06:09:14.989Z,16.57
2017-05-26T06:10:24.629Z,16.64
2017-05-26T06:11:34.895Z,16.69
2017-05-26T06:12:45.206Z,16.74
2017-05-26T06:13:55.482Z,16.86
2017-05-26T06:15:05.760Z,16.89
2017-05-26T06:16:16.025Z,16.99
2017-05-26T06:17:25.980Z,17.09
2017-05-26T06:18:36.247Z,17.19
2017-05-26T06:19:46.198Z,17.12
2017-05-26T06:20:56.467Z,17.31
2017-05-26T06:22:06.740Z,17.28
2017-05-26T06:23:16.696Z,17.32
2017-05-26T06:24:26.661Z,17.38
2017-05-26T06:25:36.924Z,17.46
2017-05-26T06:26:46.878Z,17.46
2017-05-26T06:27:56.830Z,17.46
2017-05-26T06:29:06.476Z,17.5
2017-05-26T06:30:16.748Z,17.53
2017-05-26T06:31:26.711Z,17.52
2017-05-26T06:32:36.674Z,17.5
2017-05-26T06:33:46.946Z,17.57
2017-05-26T06:34:56.591Z,17.68
2017-05-26T06:36:06.866Z,17.6
2017-05-26T06:37:16.827Z,17.65
2017-05-26T06:38:27.102Z,17.84
2017-05-26T06:39:37.374Z,17.8
2017-05-26T06:40:47.645Z,17.9
2017-05-26T06:41:57.925Z,17.94
2017-05-26T06:43:08.189Z,17.94
2017-05-26T06:44:18.147Z,18.06
2017-05-26T06:45:28.416Z,18.08
2017-05-26T06:46:38.374Z,18.11
2017-05-26T06:47:48.647Z,18.15
2017-05-26T06:48:58.615Z,18.21
2017-05-26T06:50:08.887Z,18.26
2017-05-26T06:51:19.156Z,18.18
2017-05-26T06:52:29.422Z,18.24
2017-05-26T06:53:39.696Z,18.31
2017-05-26T06:54:49.966Z,18.28
2017-05-26T06:56:00.234Z,18.28
2017-05-26T06:57:09.874Z,18.28
2017-05-26T06:58:19.513Z,18.45
2017-05-26T06:59:29.789Z,18.31
2017-05-26T07:00:39.745Z,18.28
2017-05-26T07:01:49.698Z,18.31
2017-05-26T07:02:59.974Z,18.51
2017-05-26T07:04:10.245Z,18.55
2017-05-26T07:05:19.265Z,18.46
2017-05-26T07:06:29.532Z,18.49
2017-05-26T07:07:39.488Z,18.46
2017-05-26T07:08:49.765Z,18.42
2017-05-26T07:10:00.096Z,18.51
2017-05-26T07:11:10.367Z,18.52
2017-05-26T07:12:20.335Z,18.48
2017-05-26T07:13:30.289Z,18.53
2017-05-26T07:14:40.558Z,18.61
2017-05-26T07:15:50.830Z,18.63
2017-05-26T07:17:00.802Z,18.71
2017-05-26T07:18:11.072Z,18.81
2017-05-26T07:19:21.349Z,18.78
2017-05-26T07:20:31.618Z,18.79
2017-05-26T07:21:41.001Z,18.86
2017-05-26T07:22:51.269Z,19.04
2017-05-26T07:24:01.229Z,19.01
2017-05-26T07:25:11.499Z,19.11
2017-05-26T07:26:21.460Z,19.2
2017-05-26T07:27:31.418Z,19.12
2017-05-26T07:28:41.682Z,19.23
2017-05-26T07:29:51.330Z,19.23
2017-05-26T07:31:00.973Z,19.24
2017-05-26T07:32:10.931Z,19.27
2017-05-26T07:33:20.890Z,19.35
2017-05-26T07:34:30.851Z,19.3
2017-05-26T07:35:40.806Z,19.34
2017-05-26T07:36:51.080Z,19.23
2017-05-26T07:38:01.353Z,19.22
2017-05-26T07:39:11.314Z,19.2
2017-05-26T07:40:21.588Z,19.11
2017-05-26T07:41:31.856Z,19.11
2017-05-26T07:42:41.811Z,19.11
2017-05-26T07:43:52.086Z,19.23
2017-05-26T07:45:01.737Z,19.23
2017-05-26T07:46:11.382Z,19.26
2017-05-26T07:47:21.662Z,19.23
2017-05-26T07:48:31.928Z,19.17
2017-05-26T07:49:42.208Z,19.07
2017-05-26T07:50:52.493Z,19.04
2017-05-26T07:52:02.767Z,18.89
2017-05-26T07:53:12.406Z,18.88
2017-05-26T07:54:22.049Z,18.82
2017-05-26T07:55:32.325Z,18.79
2017-05-26T07:56:42.591Z,18.7
2017-05-26T07:57:52.867Z,18.71
2017-05-26T07:59:03.144Z,18.71
2017-05-26T08:00:13.102Z,18.6
2017-05-26T08:01:23.056Z,18.58
2017-05-26T08:02:33.010Z,18.49
2017-05-26T08:03:42.970Z,18.61
2017-05-26T08:04:52.933Z,18.43
2017-05-26T08:06:03.202Z,18.42
2017-05-26T08:07:13.160Z,18.36
2017-05-26T08:08:23.433Z,18.45
2017-05-26T08:09:33.712Z,18.33
2017-05-26T08:10:43.985Z,18.31
2017-05-26T08:11:53.943Z,18.43
2017-05-26T08:13:03.896Z,18.51
2017-05-26T08:14:13.856Z,18.37
2017-05-26T08:15:23.811Z,18.33
2017-05-26T08:16:33.779Z,18.34
2017-05-26T08:17:44.050Z,18.48
2017-05-26T08:18:53.694Z,18.46
2017-05-26T08:20:03.650Z,18.55
2017-05-26T08:21:13.917Z,18.53
2017-05-26T08:22:23.950Z,18.58
2017-05-26T08:23:34.217Z,18.68
2017-05-26T08:24:44.177Z,18.74
2017-05-26T08:25:54.443Z,18.66
2017-05-26T08:27:04.399Z,18.82
2017-05-26T08:28:14.672Z,18.81
2017-05-26T08:29:24.632Z,18.79
2017-05-26T08:30:34.907Z,18.89
2017-05-26T08:31:45.202Z,18.92
2017-05-26T08:32:55.491Z,18.94
2017-05-26T08:34:05.762Z,18.83
2017-05-26T08:35:15.419Z,18.91
2017-05-26T08:36:25.686Z,18.85
2017-05-26T08:37:35.646Z,18.71
2017-05-26T08:38:45.292Z,18.78
2017-05-26T08:39:55.567Z,18.67
2017-05-26T08:41:05.526Z,18.68
2017-05-26T08:42:15.492Z,18.78
2017-05-26T08:43:25.448Z,18.88
2017-05-26T08:44:35.403Z,18.81
2017-05-26T08:45:45.667Z,18.74
2017-05-26T08:46:55.305Z,18.73
2017-05-26T08:48:05.267Z,18.73
2017-05-26T08:49:15.538Z,18.78
2017-05-26T08:50:25.806Z,18.81
2017-05-26T08:51:36.080Z,18.91
2017-05-26T08:52:46.039Z,18.91
2017-05-26T08:53:56.314Z,18.92
2017-05-26T08:55:06.266Z,19.01
2017-05-26T08:56:16.223Z,19.11
2017-05-26T08:57:26.184Z,19.16
2017-05-26T08:58:36.461Z,19.22
2017-05-26T08:59:46.419Z,19.24
2017-05-26T09:00:56.689Z,19.38
2017-05-26T09:02:06.656Z,19.47
2017-05-26T09:03:16.935Z,19.47
2017-05-26T09:04:26.897Z,19.42
2017-05-26T09:05:37.166Z,19.49
2017-05-26T09:06:47.121Z,19.57
2017-05-26T09:07:57.387Z,19.64
2017-05-26T09:09:07.658Z,19.6
2017-05-26T09:10:17.943Z,19.7
2017-05-26T09:11:27.591Z,19.75
2017-05-26T09:12:37.860Z,19.78
2017-05-26T09:13:47.817Z,19.79
2017-05-26T09:14:58.093Z,19.82
2017-05-26T09:16:08.366Z,19.87
2017-05-26T09:17:17.379Z,19.9
2017-05-26T09:18:27.653Z,19.94
2017-05-26T09:19:37.610Z,20
2017-05-26T09:20:47.569Z,19.93
2017-05-26T09:21:57.845Z,19.99
2017-05-26T09:23:08.115Z,19.92
2017-05-26T09:24:18.073Z,19.97
2017-05-26T09:25:28.348Z,19.77
2017-05-26T09:26:38.626Z,19.67
2017-05-26T09:27:48.898Z,19.64
2017-05-26T09:28:59.171Z,19.7
2017-05-26T09:30:08.816Z,19.72
2017-05-26T09:31:19.143Z,19.74
2017-05-26T09:32:29.430Z,19.7
2017-05-26T09:33:39.702Z,19.72
2017-05-26T09:34:49.973Z,19.71
2017-05-26T09:35:59.939Z,19.77
2017-05-26T09:37:10.210Z,19.77
2017-05-26T09:38:19.858Z,19.82
2017-05-26T09:39:30.153Z,19.92
2017-05-26T09:40:40.109Z,19.99
2017-05-26T09:41:50.380Z,19.93
2017-05-26T09:43:00.341Z,19.97
2017-05-26T09:44:10.300Z,20.07
2017-05-26T09:45:20.577Z,20.14
2017-05-26T09:46:30.532Z,20.07
2017-05-26T09:47:40.804Z,20
2017-05-26T09:48:51.079Z,20.11
2017-05-26T09:50:00.731Z,19.99
2017-05-26T09:51:10.688Z,20.12
2017-05-26T09:52:20.955Z,20.29
2017-05-26T09:53:31.228Z,20.29
2017-05-26T09:54:41.496Z,20.27
2017-05-26T09:55:51.771Z,20.27
2017-05-26T09:57:01.732Z,20.32
2017-05-26T09:58:11.689Z,20.34
2017-05-26T09:59:21.657Z,20.36
2017-05-26T10:00:31.308Z,20.29
2017-05-26T10:01:41.583Z,20.39
2017-05-26T10:02:51.858Z,20.22
2017-05-26T10:04:02.131Z,20.3
2017-05-26T10:05:12.098Z,20.34
2017-05-26T10:06:21.806Z,20.44
2017-05-26T10:07:32.075Z,20.49
2017-05-26T10:08:42.349Z,20.55
2017-05-26T10:09:52.312Z,20.63
2017-05-26T10:11:02.590Z,20.58
2017-05-26T10:12:12.866Z,20.59
2017-05-26T10:13:22.510Z,20.63
2017-05-26T10:14:32.804Z,20.77
2017-05-26T10:15:43.072Z,20.74
2017-05-26T10:16:53.048Z,20.71
2017-05-26T10:18:03.318Z,20.83
2017-05-26T10:19:13.596Z,20.8
2017-05-26T10:20:23.240Z,20.93
2017-05-26T10:21:33.510Z,20.92
2017-05-26T10:22:43.779Z,20.88
2017-05-26T10:23:54.064Z,20.9
2017-05-26T10:25:03.709Z,20.9
2017-05-26T10:26:13.985Z,20.89
2017-05-26T10:27:24.256Z,21.05
2017-05-26T10:28:34.536Z,21.03
2017-05-26T10:29:44.806Z,21.08
2017-05-26T10:30:55.079Z,21.08
2017-05-26T10:32:05.356Z,21.04
2017-05-26T10:33:15.006Z,21.08
2017-05-26T10:34:24.644Z,21.25
2017-05-26T10:35:34.914Z,21.23
2017-05-26T10:36:45.183Z,21.2
2017-05-26T10:37:55.465Z,21.22
2017-05-26T10:39:05.112Z,21.28
2017-05-26T10:40:14.760Z,21.28
2017-05-26T10:41:24.723Z,21.4
2017-05-26T10:42:34.998Z,21.38
2017-05-26T10:43:44.656Z,21.47
2017-05-26T10:44:54.613Z,21.51
2017-05-26T10:46:04.259Z,21.6
2017-05-26T10:47:14.531Z,21.48
2017-05-26T10:48:24.802Z,21.4
2017-05-26T10:49:35.074Z,21.56
2017-05-26T10:50:45.345Z,21.54
2017-05-26T10:51:55.626Z,21.6
2017-05-26T10:53:05.971Z,21.45
2017-05-26T10:54:15.623Z,21.65
2017-05-26T10:55:25.897Z,21.69
2017-05-26T10:56:35.863Z,21.66
2017-05-26T10:57:45.509Z,21.69
2017-05-26T10:58:55.779Z,21.78
2017-05-26T11:00:06.053Z,21.75
2017-05-26T11:01:15.702Z,21.74
2017-05-26T11:02:25.343Z,21.89
2017-05-26T11:03:35.617Z,21.83
2017-05-26T11:04:45.579Z,21.91
2017-05-26T11:05:55.854Z,21.88
2017-05-26T11:07:05.814Z,21.85
2017-05-26T11:08:16.087Z,21.89
2017-05-26T11:09:26.366Z,21.99
2017-05-26T11:10:36.636Z,21.97
2017-05-26T11:11:46.595Z,21.85
2017-05-26T11:12:56.237Z,21.89
2017-05-26T11:14:05.888Z,22
2017-05-26T11:15:16.167Z,21.97
2017-05-26T11:16:25.809Z,22
2017-05-26T11:17:35.453Z,22
2017-05-26T11:18:45.731Z,22.14
2017-05-26T11:19:55.376Z,22.06
2017-05-26T11:21:05.649Z,22.14
2017-05-26T11:22:15.604Z,22.18
2017-05-26T11:23:25.888Z,22.1
2017-05-26T11:24:36.166Z,22.21
2017-05-26T11:25:46.438Z,22.26
2017-05-26T11:26:56.080Z,22.38
2017-05-26T11:28:06.368Z,22.61
2017-05-26T11:29:16.651Z,22.91
2017-05-26T11:30:26.614Z,23.32
2017-05-26T11:31:36.887Z,23.77
2017-05-26T11:32:46.847Z,24.24
2017-05-26T11:33:57.132Z,24.62
2017-05-26T11:35:07.096Z,25.09
2017-05-26T11:36:17.376Z,25.59
2017-05-26T11:37:27.659Z,26.06
2017-05-26T11:38:37.630Z,26.53
2017-05-26T11:39:47.907Z,27.01
2017-05-26T11:40:57.865Z,27.22
2017-05-26T11:42:08.141Z,27.48
2017-05-26T11:43:18.425Z,27.98
2017-05-26T11:44:28.708Z,28.53
2017-05-26T11:45:38.981Z,28.94
2017-05-26T11:46:49.261Z,29.49
2017-05-26T11:47:59.544Z,29.87
2017-05-26T11:49:09.857Z,30.26
2017-05-26T11:50:19.829Z,30.4
2017-05-26T11:51:29.806Z,30.89
2017-05-26T11:52:40.106Z,31.45
2017-05-26T11:53:50.391Z,31.85
2017-05-26T11:55:00.363Z,32.17
2017-05-26T11:56:10.021Z,32.16
2017-05-26T11:57:19.362Z,32.41
2017-05-26T11:58:29.333Z,32.85
2017-05-26T11:59:39.617Z,32.81
2017-05-26T12:00:49.590Z,32.79
2017-05-26T12:01:59.609Z,33.2
2017-05-26T12:03:09.579Z,33.54
2017-05-26T12:04:19.869Z,33.5
2017-05-26T12:05:29.835Z,33.76
2017-05-26T12:06:40.126Z,33.94
2017-05-26T12:07:50.413Z,34.21
2017-05-26T12:09:00.394Z,34.38
2017-05-26T12:10:10.676Z,34.38
2017-05-26T12:11:20.707Z,34.46
2017-05-26T12:12:31.000Z,34.19
2017-05-26T12:13:40.973Z,33.98
2017-05-26T12:14:50.630Z,34.22
2017-05-26T12:15:59.969Z,34.53
2017-05-26T12:17:09.625Z,34.5
2017-05-26T12:18:19.602Z,34.62
2017-05-26T12:19:30.192Z,34.83
2017-05-26T12:20:40.485Z,35.03
2017-05-26T12:21:50.775Z,35.22
2017-05-26T12:23:01.063Z,35.38
2017-05-26T12:24:11.343Z,35.37
2017-05-26T12:25:21.626Z,35.6
2017-05-26T12:26:31.910Z,35.96
2017-05-26T12:27:42.194Z,35.98
2017-05-26T12:28:52.180Z,36.08
2017-05-26T12:30:02.438Z,36.08
2017-05-26T12:31:14.777Z,36.28
2017-05-26T12:32:25.070Z,36.33
2017-05-26T12:33:35.364Z,36.22
2017-05-26T12:34:45.657Z,35.88
2017-05-26T12:35:55.632Z,35.87
2017-05-26T12:37:05.928Z,36.01
2017-05-26T12:38:16.217Z,36.25
2017-05-26T12:39:26.498Z,36.26
2017-05-26T12:40:36.470Z,36.11
2017-05-26T12:41:46.751Z,36.36
2017-05-26T12:42:57.043Z,36.57
2017-05-26T12:44:06.708Z,36.59
2017-05-26T12:45:17.000Z,36.88
2017-05-26T12:46:27.016Z,36.85
2017-05-26T12:47:37.305Z,36.88
2017-05-26T12:48:47.599Z,36.72
2017-05-26T12:49:57.565Z,36.62
2017-05-26T12:51:07.542Z,36.7
2017-05-26T12:52:17.517Z,36.75
2017-05-26T12:53:27.803Z,36.89
2017-05-26T12:54:38.095Z,36.81
2017-05-26T12:55:48.389Z,37.09
2017-05-26T12:56:58.360Z,37.09
2017-05-26T12:58:08.338Z,37.01
2017-05-26T12:59:17.686Z,37.15
2017-05-26T13:00:27.666Z,37
2017-05-26T13:01:37.952Z,37.16
2017-05-26T13:02:48.246Z,37.4
2017-05-26T13:03:58.552Z,37.36
2017-05-26T13:05:08.843Z,37.33
2017-05-26T13:06:18.822Z,37.28
2017-05-26T13:07:29.113Z,37.22
2017-05-26T13:08:39.403Z,36.72
2017-05-26T13:09:49.695Z,36.67
2017-05-26T13:10:59.985Z,36.48
2017-05-26T13:12:09.649Z,36.57
2017-05-26T13:13:19.309Z,36.75
2017-05-26T13:14:28.715Z,36.96
2017-05-26T13:15:39.006Z,37.09
2017-05-26T13:16:48.976Z,37.03
2017-05-26T13:17:59.266Z,37.21
2017-05-26T13:19:09.557Z,37.41
2017-05-26T13:20:19.231Z,37.61
2017-05-26T13:21:28.583Z,37.78
2017-05-26T13:22:38.555Z,37.82
2017-05-26T13:23:48.848Z,37.92
2017-05-26T13:24:58.520Z,37.86
2017-05-26T13:26:08.805Z,37.76
2017-05-26T13:27:18.791Z,37.67
2017-05-26T13:28:28.776Z,38.07
2017-05-26T13:29:39.060Z,38.36
2017-05-26T13:30:49.037Z,38.38
2017-05-26T13:31:58.703Z,38.2
2017-05-26T13:33:08.365Z,38.34
2017-05-26T13:34:18.650Z,38.44
2017-05-26T13:35:28.622Z,38.46
2017-05-26T13:36:38.598Z,38.63
2017-05-26T13:37:48.885Z,38.54
2017-05-26T13:38:58.860Z,38.68
2017-05-26T13:40:08.839Z,38.66
2017-05-26T13:41:18.812Z,39.07
2017-05-26T13:42:29.172Z,39.2
2017-05-26T13:43:39.458Z,39.26
2017-05-26T13:44:49.745Z,39.42
2017-05-26T13:45:59.727Z,39.57
2017-05-26T13:47:09.388Z,39.71
2017-05-26T13:48:19.051Z,39.82
2017-05-26T13:49:28.714Z,39.8
2017-05-26T13:50:39.003Z,39.78
2017-05-26T13:51:48.979Z,39.83
2017-05-26T13:52:59.266Z,39.89
2017-05-26T13:54:09.553Z,39.66
2017-05-26T13:55:19.530Z,39.6
2017-05-26T13:56:29.194Z,39.33
2017-05-26T13:57:39.483Z,39.49
2017-05-26T13:58:49.769Z,39.37
2017-05-26T13:59:59.748Z,39.07
2017-05-26T14:01:10.042Z,38.57
2017-05-26T14:02:20.328Z,38.39
2017-05-26T14:03:30.298Z,38.13
2017-05-26T14:04:40.586Z,37.66
2017-05-26T14:05:50.871Z,37.72
2017-05-26T14:07:01.154Z,37.48
2017-05-26T14:08:11.439Z,37.04
2017-05-26T14:09:21.411Z,36.91
2017-05-26T14:10:31.694Z,36.96
2017-05-26T14:11:41.666Z,37.37
2017-05-26T14:12:51.947Z,37.85
2017-05-26T14:14:01.290Z,37.82
2017-05-26T14:15:11.004Z,37.68
2017-05-26T14:16:21.291Z,37.57
2017-05-26T14:17:31.580Z,37.85
2017-05-26T14:18:41.869Z,38.13
2017-05-26T14:19:52.203Z,38.23
2017-05-26T14:21:01.239Z,38.23
2017-05-26T14:22:11.216Z,38.35
2017-05-26T14:23:21.197Z,38.34
2017-05-26T14:24:31.488Z,38.5
2017-05-26T14:25:41.145Z,38.77
2017-05-26T14:26:50.802Z,38.98
2017-05-26T14:28:00.774Z,38.96
2017-05-26T14:29:10.754Z,39.03
2017-05-26T14:30:20.732Z,39.38
2017-05-26T14:31:30.388Z,39.25
2017-05-26T14:32:40.678Z,39.23
2017-05-26T14:33:50.649Z,39.51
2017-05-26T14:35:00.314Z,39.54
2017-05-26T14:36:09.658Z,39.22
2017-05-26T14:37:19.317Z,39.12
2017-05-26T14:38:29.602Z,39.08
2017-05-26T14:39:39.892Z,38.85
2017-05-26T14:40:50.177Z,38.79
2017-05-26T14:42:00.170Z,38.96
2017-05-26T14:43:10.452Z,38.82
2017-05-26T14:44:20.738Z,38.79
2017-05-26T14:45:31.026Z,38.85
2017-05-26T14:46:41.008Z,38.72
2017-05-26T14:47:51.288Z,38.62
2017-05-26T14:49:01.264Z,37.98
2017-05-26T14:50:11.237Z,37.79
2017-05-26T14:51:21.209Z,37.63
2017-05-26T14:52:31.192Z,37.23
2017-05-26T14:53:41.479Z,37.25
2017-05-26T14:54:51.763Z,37.37
2017-05-26T14:56:01.102Z,37.19
2017-05-26T14:57:11.074Z,37.04
2017-05-26T14:58:21.359Z,37.04
2017-05-26T14:59:31.649Z,37.18
2017-05-26T15:00:41.930Z,36.99
2017-05-26T15:01:52.215Z,37.25
2017-05-26T15:03:02.507Z,37.56
2017-05-26T15:04:12.472Z,37.8
2017-05-26T15:05:22.133Z,38.05
2017-05-26T15:06:32.415Z,38.27